Latest Weather Observations for Mount Bundey South (Defence)

IDD60801

Issued at 10:41 pm CST Friday 15 November 2019 (issued every 10 minutes, with the page automatically refreshed every 10 minutes)

About weather observations | Map of weather stations | Latest weather observations for NT | Other Formats
Station Details ID: 014984 Name: MOUNT BUNDEY SOUTH (DEFENCE) Lat: -13.09 Lon: 131.85 Height: 55.0 m
Data from the previous 72 hours. | See also: Recent months at Mount Bundey South (Defence)
Date/Time
CST
Temp
°C
App
Temp
°C
Dew
Point
°C
Rel
Hum
%
Delta-T
°C
Wind Press
QNH
hPa
Press
MSL
hPa
Rain since
9am
mm
Dir  Spd
km/h
Gust
km/h
Spd
kts
Gust
kts
15/10:30pm 30.6 34.5 22.5 62 5.5 N 6 11 3 6 1012.9 1012.5 0.0
15/10:00pm 31.2 34.3 21.4 56 6.6 N 7 11 4 6 1012.6 1012.2 0.0
15/09:30pm 31.5 34.8 21.9 56 6.5 NNW 7 15 4 8 1012.2 1011.8 0.0
15/09:00pm 31.8 35.1 22.5 58 6.4 N 9 17 5 9 1011.6 1011.2 0.0
15/08:30pm 32.1 35.9 22.8 58 6.4 N 7 15 4 8 1011.0 1010.6 0.0
15/08:00pm 32.5 36.7 23.2 58 6.4 N 6 11 3 6 1010.2 1009.8 0.0
15/07:30pm 33.2 36.9 23.2 55 6.9 NW 9 13 5 7 1009.3 1008.9 0.0
15/07:00pm 34.5 38.0 22.2 48 8.4 NW 7 13 4 7 1008.7 1008.3 0.0
15/06:30pm 36.3 38.5 19.7 37 11.1 NNW 7 13 4 7 1008.3 1007.9 0.0
15/06:00pm 38.4 38.2 12.9 22 15.7 NE 6 9 3 5 1007.9 1007.5 0.0
15/05:30pm 38.6 38.2 13.1 22 15.7 NE 7 13 4 7 1007.6 1007.2 0.0
15/05:00pm 39.4 38.8 12.3 20 16.5 NNE 7 11 4 6 1007.5 1007.1 0.0
15/04:30pm 39.9 38.4 11.9 19 17.0 NE 11 19 6 10 1007.4 1007.0 0.0
15/04:00pm 40.1 39.0 12.1 19 17.1 NNE 9 19 5 10 1007.5 1007.1 0.0
15/03:30pm 39.9 38.9 10.2 17 17.6 W 6 11 3 6 1007.9 1007.5 0.0
15/03:00pm 38.8 36.9 11.8 20 16.3 ENE 13 19 7 10 1008.4 1008.0 0.0
15/02:30pm 39.0 38.3 12.0 20 16.4 ENE 7 17 4 9 1008.7 1008.3 0.0
15/02:00pm 38.9 38.6 13.3 22 15.8 SE 7 15 4 8 1009.3 1008.9 0.0
15/01:30pm 39.3 39.0 14.3 22 15.7 ENE 9 24 5 13 1009.8 1009.4 0.0
15/01:00pm 38.0 38.1 14.5 24 14.7 E 7 15 4 8 1010.5 1010.1 0.0
15/12:30pm 37.4 37.4 15.2 26 14.0 E 9 19 5 10 1011.0 1010.6 0.0
15/12:00pm 36.5 37.8 17.6 32 12.3 E 7 13 4 7 1011.5 1011.1 0.0
15/11:30am 36.0 37.7 18.1 34 11.7 ENE 6 13 3 7 1012.0 1011.6 0.0
15/11:00am 35.4 37.3 18.9 37 10.9 E 7 15 4 8 1012.3 1011.9 0.0
15/10:30am 33.8 36.7 20.6 46 8.9 SSE 6 11 3 6 1012.7 1012.3 0.0
15/10:00am 33.0 36.3 21.5 50 7.8 SSE 6 7 3 4 1013.0 1012.6 0.0
15/09:30am 32.0 35.7 21.5 53 7.1 S 4 7 2 4 1013.2 1012.8 0.0
15/09:00am 31.7 36.1 22.1 56 6.5 ENE 2 6 1 3 1013.0 1012.6 0.0
15/08:30am 30.5 35.3 22.1 61 5.7 CALM 0 4 0 2 1012.7 1012.3 0.0
15/08:00am 29.7 34.7 23.2 68 4.5 SSE 2 6 1 3 1012.7 1012.3 0.0
15/07:30am 28.3 33.7 23.2 74 3.5 CALM 0 0 0 0 1012.4 1012.0 0.0
15/07:00am 26.7 32.1 23.2 81 2.4 CALM 0 2 0 1 1012.1 1011.7 0.0
15/06:30am 25.3 30.7 23.2 88 1.4 CALM 0 0 0 0 1011.9 1011.5 0.0
15/06:00am 25.1 30.4 23.0 88 1.4 CALM 0 0 0 0 1011.6 1011.2 0.0
15/05:30am 25.4 30.8 23.3 88 1.4 CALM 0 0 0 0 1011.1 1010.7 0.0
15/05:00am 25.6 30.9 23.1 86 1.7 CALM 0 0 0 0 1010.8 1010.4 0.0
15/04:30am 26.1 31.5 23.2 84 2.0 CALM 0 0 0 0 1010.5 1010.1 0.0
15/04:00am 26.5 31.5 23.2 82 2.3 N 2 4 1 2 1010.3 1009.9 0.0
15/03:30am 26.7 32.1 23.2 81 2.4 CALM 0 0 0 0 1010.2 1009.8 0.0
15/03:00am 26.8 32.0 22.8 79 2.7 CALM 0 0 0 0 1010.1 1009.7 0.0
15/02:30am 27.2 32.4 22.8 77 3.0 CALM 0 0 0 0 1010.3 1009.9 0.0
15/02:00am 27.5 32.2 22.7 75 3.3 NNW 2 4 1 2 1010.5 1010.1 0.0
15/01:30am 27.9 33.0 22.6 73 3.6 CALM 0 0 0 0 1011.1 1010.7 0.0
15/01:00am 28.3 33.6 23.0 73 3.6 CALM 0 0 0 0 1011.8 1011.4 0.0
15/12:30am 28.6 33.8 22.8 71 4.0 CALM 0 0 0 0 1012.2 1011.8 0.0
15/12:00am 28.9 34.0 22.6 69 4.3 CALM 0 0 0 0 1012.5 1012.1 0.0
 
Date/Time
CST
Temp
°C
App
Temp
°C
Dew
Point
°C
Rel
Hum
%
Delta-T
°C
Wind Press
QNH
hPa
Press
MSL
hPa
Rain since
9am
mm
Dir  Spd
km/h
Gust
km/h
Spd
kts
Gust
kts
14/11:30pm 29.3 33.9 22.5 67 4.6 N 2 6 1 3 1012.3 1011.9 0.0
14/11:00pm 29.6 33.5 22.6 66 4.8 NW 6 7 3 4 1012.3 1011.9 0.0
14/10:30pm 30.0 34.1 22.2 63 5.3 N 4 6 2 3 1012.2 1011.8 0.0
14/10:00pm 30.4 34.7 22.0 60 5.7 NNW 2 4 1 2 1011.6 1011.2 0.0
14/09:30pm 30.8 34.7 21.9 59 6.0 NW 4 6 2 3 1010.9 1010.5 0.0
14/09:00pm 31.4 35.2 21.6 56 6.6 NW 4 9 2 5 1010.4 1010.0 0.0
14/08:30pm 31.9 34.6 21.4 53 7.1 NNW 9 15 5 8 1010.0 1009.6 0.0
14/08:00pm 32.9 35.9 22.0 52 7.4 N 9 19 5 10 1009.4 1009.0 0.0
14/07:30pm 33.6 37.0 19.3 43 9.4 CALM 0 0 0 0 1008.4 1008.0 0.0
14/07:00pm 34.3 37.2 18.3 38 10.4 CALM 0 2 0 1 1008.1 1007.7 0.0
14/06:30pm 35.0 37.1 18.1 36 11.0 WSW 4 6 2 3 1008.0 1007.6 0.0
14/06:00pm 36.0 38.1 17.2 33 12.2 SW 2 6 1 3 1007.8 1007.4 0.0
14/05:30pm 36.2 38.4 17.4 33 12.2 SW 2 4 1 2 1007.8 1007.4 0.0
14/05:00pm 35.8 36.3 16.5 31 12.3 SSW 9 17 5 9 1008.1 1007.7 0.0
14/04:30pm 36.3 37.7 16.5 31 12.7 SE 4 7 2 4 1008.1 1007.7 0.0
14/04:00pm 35.5 36.3 16.3 32 12.2 ESE 7 13 4 7 1008.3 1007.9 0.0
14/03:30pm 36.3 36.8 16.5 31 12.7 ESE 9 17 5 9 1008.9 1008.5 0.0
14/03:00pm 36.5 36.6 16.6 30 12.8 NE 11 19 6 10 1008.9 1008.5 0.0
14/02:30pm 37.8 38.7 16.1 27 13.9 ENE 6 13 3 7 1009.3 1008.9 0.0
14/02:00pm 37.9 39.1 16.8 29 13.6 ESE 6 13 3 7 1009.9 1009.5 0.0
14/01:30pm 36.7 37.3 16.8 30 12.8 E 9 17 5 9 1010.7 1010.3 0.0
14/01:00pm 37.4 37.9 17.4 30 13.0 ENE 11 19 6 10 1011.4 1011.0 0.0
14/12:30pm 36.6 38.0 17.7 32 12.3 SE 7 19 4 10 1012.1 1011.7 0.0
14/12:00pm 35.6 37.6 19.1 38 10.9 S 7 20 4 11 1012.5 1012.1 0.0
14/11:30am 34.6 37.5 20.6 44 9.4 S 6 11 3 6 1013.0 1012.6 0.0
14/11:00am 33.8 36.8 20.9 46 8.7 WSW 6 11 3 6 1013.5 1013.1 0.0
14/10:30am 33.0 36.8 22.7 54 7.1 WSW 7 13 4 7 1014.0 1013.6 0.0
14/10:00am 32.1 36.3 22.5 57 6.6 WSW 4 13 2 7 1014.3 1013.9 0.0
14/09:30am 31.4 35.2 22.4 59 6.1 NW 6 11 3 6 1014.4 1014.0 0.0
14/09:00am 30.5 34.7 22.4 62 5.5 SSW 4 9 2 5 1014.3 1013.9 0.0
14/08:30am 29.3 33.7 22.8 68 4.4 WNW 4 9 2 5 1014.3 1013.9 0.0
14/08:00am 28.9 34.2 23.1 71 4.0 CALM 0 0 0 0 1014.2 1013.8 0.0
14/07:30am 27.9 33.3 23.3 76 3.2 CALM 0 4 0 2 1014.0 1013.6 0.0
14/07:00am 27.1 32.7 23.6 81 2.4 CALM 0 0 0 0 1013.6 1013.2 0.0
14/06:30am 26.1 32.0 24.1 89 1.4 CALM 0 0 0 0 1013.1 1012.7 0.0
14/06:00am 26.1 32.0 24.1 89 1.4 CALM 0 0 0 0 1012.7 1012.3 0.0
14/05:30am 26.4 32.3 24.1 87 1.6 CALM 0 0 0 0 1012.3 1011.9 0.0
14/05:00am 26.7 32.7 24.2 86 1.7 CALM 0 0 0 0 1012.0 1011.6 0.0
14/04:30am 26.9 32.9 24.2 85 1.9 CALM 0 0 0 0 1011.8 1011.4 0.0
14/04:00am 27.0 32.8 23.9 83 2.1 CALM 0 0 0 0 1011.9 1011.5 0.0
14/03:30am 27.6 33.6 24.2 82 2.4 CALM 0 4 0 2 1011.9 1011.5 0.0
14/03:00am 27.8 33.8 24.2 81 2.5 CALM 0 0 0 0 1012.1 1011.7 0.0
14/02:30am 27.9 33.4 24.1 80 2.6 N 2 4 1 2 1012.4 1012.0 0.0
14/02:00am 28.1 32.9 24.1 79 2.8 NNE 6 9 3 5 1012.7 1012.3 0.0
14/01:30am 28.3 33.3 23.9 77 3.0 NNE 4 9 2 5 1013.0 1012.6 0.0
14/01:00am 28.6 34.0 23.9 75 3.3 NE 2 6 1 3 1013.4 1013.0 0.0
14/12:30am 28.8 33.9 24.1 76 3.3 NNE 4 9 2 5 1013.3 1012.9 0.0
14/12:00am 28.9 33.2 23.3 72 3.8 NNE 6 9 3 5 1013.4 1013.0 0.0
 
Date/Time
CST
Temp
°C
App
Temp
°C
Dew
Point
°C
Rel
Hum
%
Delta-T
°C
Wind Press
QNH
hPa
Press
MSL
hPa
Rain since
9am
mm
Dir  Spd
km/h
Gust
km/h
Spd
kts
Gust
kts
13/11:30pm 29.2 32.9 22.2 66 4.7 N 6 9 3 5 1013.4 1013.0 0.0
13/11:00pm 29.5 32.7 21.7 63 5.3 N 7 15 4 8 1013.4 1013.0 0.0
13/10:30pm 29.8 32.9 21.5 61 5.6 NNE 7 13 4 7 1013.3 1012.9 0.0
13/10:00pm 30.1 33.3 21.2 59 6.0 N 6 9 3 5 1012.8 1012.4 0.0
13/09:30pm 30.2 33.7 21.8 60 5.7 N 6 9 3 5 1012.4 1012.0 0.0
13/09:00pm 30.5 34.1 22.1 61 5.7 NNW 6 9 3 5 1011.9 1011.5 0.0
13/08:30pm 31.1 34.8 23.2 63 5.5 WNW 9 17 5 9 1011.1 1010.7 0.0
13/08:00pm 31.5 35.0 22.8 60 6.0 NW 9 17 5 9 1010.7 1010.3 0.0
13/07:30pm 32.2 35.4 22.3 56 6.8 NW 9 20 5 11 1010.4 1010.0 0.0
13/07:00pm 33.3 34.6 19.4 44 9.2 NW 11 20 6 11 1010.0 1009.6 0.0
13/06:30pm 34.6 37.5 20.6 44 9.4 N 6 9 3 5 1009.6 1009.2 0.0
13/06:00pm 35.2 37.9 20.7 42 9.8 NNE 7 13 4 7 1009.5 1009.1 0.0
13/05:30pm 36.1 37.5 18.7 36 11.5 N 9 20 5 11 1008.9 1008.5 0.0
13/05:00pm 36.5 35.9 15.6 29 13.2 NE 13 24 7 13 1008.4 1008.0 0.0
13/04:30pm 37.8 36.6 15.0 26 14.4 ENE 15 24 8 13 1008.7 1008.3 0.0
13/04:00pm 39.1 39.2 15.5 25 15.0 NE 9 15 5 8 1009.0 1008.6 0.0
13/03:30pm 38.7 39.2 15.1 24 14.9 ENE 6 13 3 7 1009.2 1008.8 0.0
13/03:00pm 38.2 39.5 17.0 28 13.7 ESE 6 11 3 6 1009.6 1009.2 0.0
13/02:30pm 37.5 39.1 17.0 30 13.3 NNE 4 7 2 4 1010.3 1009.9 0.0
13/02:00pm 36.7 38.3 18.3 34 12.1 NNE 7 13 4 7 1010.7 1010.3 0.0
13/01:30pm 37.2 39.6 19.6 35 11.8 NNW 6 15 3 8 1011.0 1010.6 0.0
13/01:00pm 36.5 39.0 19.9 38 11.1 NNW 6 15 3 8 1011.8 1011.4 0.0
13/12:30pm 35.1 37.8 20.2 41 10.0 W 6 15 3 8 1012.4 1012.0 0.0
13/12:00pm 35.0 38.0 21.3 45 9.3 N 7 15 4 8 1013.2 1012.8 0.0
13/11:30am 34.3 37.2 21.0 45 9.0 WSW 7 13 4 7 1013.7 1013.3 0.0
13/11:00am 33.4 37.5 22.2 52 7.7 SSW 4 7 2 4 1014.1 1013.7 0.0
13/10:30am 32.7 36.2 21.9 53 7.3 WSW 6 11 3 6 1014.4 1014.0 0.0
13/10:00am 31.9 36.0 22.9 59 6.2 WNW 6 13 3 7 1014.9 1014.5 0.0
13/09:30am 30.9 34.7 22.8 62 5.6 WNW 7 13 4 7 1015.1 1014.7 0.0
13/09:00am 29.6 33.3 22.6 66 4.8 WNW 7 11 4 6 1015.1 1014.7 0.0
13/08:30am 29.3 33.4 23.0 69 4.3 NW 6 11 3 6 1015.1 1014.7 0.0
13/08:00am 28.6 32.8 23.1 72 3.8 WNW 6 9 3 5 1015.0 1014.6 0.0
13/07:30am 27.7 32.6 23.1 76 3.1 WNW 2 4 1 2 1014.9 1014.5 0.0
13/07:00am 26.6 31.7 23.3 82 2.3 WSW 2 4 1 2 1014.6 1014.2 0.0
13/06:30am 26.0 31.4 23.3 85 1.8 CALM 0 0 0 0 1014.5 1014.1 0.0
13/06:00am 26.0 31.3 23.1 84 2.0 CALM 0 0 0 0 1014.2 1013.8 0.0
13/05:30am 26.3 31.7 23.2 83 2.1 CALM 0 0 0 0 1013.9 1013.5 0.0
13/05:00am 26.5 31.9 23.2 82 2.3 CALM 0 0 0 0 1013.5 1013.1 0.0
13/04:30am 26.9 32.1 22.9 79 2.7 CALM 0 0 0 0 1013.2 1012.8 0.0
13/04:00am 27.3 32.1 22.9 77 3.0 NNE 2 6 1 3 1012.9 1012.5 0.0
13/03:30am 27.5 32.0 22.9 76 3.1 N 4 9 2 5 1012.9 1012.5 0.0
13/03:00am 27.7 31.6 22.6 74 3.5 NE 6 9 3 5 1013.0 1012.6 0.0
13/02:30am 27.9 31.9 22.8 74 3.5 NE 6 9 3 5 1013.3 1012.9 0.0
13/02:00am 28.1 32.5 22.8 73 3.6 N 4 7 2 4 1013.3 1012.9 0.0
13/01:30am 28.3 32.4 23.0 73 3.6 NNE 6 11 3 6 1013.7 1013.3 0.0
13/01:00am 28.5 32.6 23.0 72 3.8 N 6 13 3 7 1013.8 1013.4 0.0
13/12:30am 28.7 32.9 23.1 71 3.8 N 6 11 3 6 1014.3 1013.9 0.0
13/12:00am 28.9 32.9 23.1 71 4.0 N 7 17 4 9 1014.5 1014.1 0.0
 
Date/Time
CST
Temp
°C
App
Temp
°C
Dew
Point
°C
Rel
Hum
%
Delta-T
°C
Wind Press
QNH
hPa
Press
MSL
hPa
Rain since
9am
mm
Dir  Spd
km/h
Gust
km/h
Spd
kts
Gust
kts
12/11:30pm 29.0 33.2 23.4 72 3.9 N 7 13 4 7 1014.6 1014.2 0.0
12/11:00pm 29.1 33.5 23.8 73 3.7 N 7 15 4 8 1014.4 1014.0 0.0

Other formats

Comma delimited format used in spreadsheet applications
http://www.bom.gov.au/fwo/IDD60801/IDD60801.94112.axf

JavaScript Object Notation format (JSON) in row-major order
http://www.bom.gov.au/fwo/IDD60801/IDD60801.94112.json

Data quality

Most of these data are generated automatically and are frequently updated. Quality checks on data are not normally performed. It is possible for incorrect values to appear. Refer to information at About Latest Weather Observations and please check the disclaimer before using these data.